sensor_id;sensor_type;location;lat;lon;timestamp;pressure;altitude;pressure_sealevel;temperature;humidity
27643;BME280;15053;48.618;10.024;2023-03-14T00:00:39;92910.91;;;9.09;99.33
27643;BME280;15053;48.618;10.024;2023-03-14T00:03:06;92906.03;;;9.08;99.37
27643;BME280;15053;48.618;10.024;2023-03-14T00:05:33;92900.09;;;9.07;99.81
27643;BME280;15053;48.618;10.024;2023-03-14T00:08:00;92910.03;;;9.05;100.00
27643;BME280;15053;48.618;10.024;2023-03-14T00:10:26;92912.63;;;9.05;100.00
27643;BME280;15053;48.618;10.024;2023-03-14T00:12:53;92913.50;;;9.09;99.68
27643;BME280;15053;48.618;10.024;2023-03-14T00:15:19;92916.59;;;9.11;99.51
27643;BME280;15053;48.618;10.024;2023-03-14T00:17:46;92913.22;;;9.11;99.22
27643;BME280;15053;48.618;10.024;2023-03-14T00:20:12;92909.84;;;9.10;99.18
27643;BME280;15053;48.618;10.024;2023-03-14T00:22:40;92885.41;;;9.11;99.11
27643;BME280;15053;48.618;10.024;2023-03-14T00:25:08;92895.19;;;9.14;99.21
27643;BME280;15053;48.618;10.024;2023-03-14T00:27:35;92846.16;;;9.13;98.40
27643;BME280;15053;48.618;10.024;2023-03-14T00:30:02;92826.91;;;9.14;97.87
27643;BME280;15053;48.618;10.024;2023-03-14T00:32:30;92829.78;;;9.12;97.54
27643;BME280;15053;48.618;10.024;2023-03-14T00:34:57;92814.22;;;9.12;97.57
27643;BME280;15053;48.618;10.024;2023-03-14T00:37:26;92799.41;;;9.13;97.72
27643;BME280;15053;48.618;10.024;2023-03-14T00:39:52;92799.53;;;9.16;96.99
27643;BME280;15053;48.618;10.024;2023-03-14T00:42:19;92799.09;;;9.14;96.43
27643;BME280;15053;48.618;10.024;2023-03-14T00:44:45;92783.38;;;9.11;96.62
27643;BME280;15053;48.618;10.024;2023-03-14T00:47:12;92765.81;;;9.08;95.68
27643;BME280;15053;48.618;10.024;2023-03-14T00:49:38;92733.00;;;9.03;95.31
27643;BME280;15053;48.618;10.024;2023-03-14T00:52:05;92716.22;;;9.01;94.64
27643;BME280;15053;48.618;10.024;2023-03-14T00:54:31;92673.34;;;8.95;93.04
27643;BME280;15053;48.618;10.024;2023-03-14T00:56:58;92663.44;;;8.88;91.81
27643;BME280;15053;48.618;10.024;2023-03-14T00:59:24;92659.97;;;8.84;92.30
27643;BME280;15053;48.618;10.024;2023-03-14T01:01:51;92638.50;;;8.75;91.22
27643;BME280;15053;48.618;10.024;2023-03-14T01:04:18;92649.50;;;8.72;90.98
27643;BME280;15053;48.618;10.024;2023-03-14T01:06:44;92638.97;;;8.68;91.51
27643;BME280;15053;48.618;10.024;2023-03-14T01:09:11;92670.75;;;8.65;91.05
27643;BME280;15053;48.618;10.024;2023-03-14T01:11:37;92668.47;;;8.64;91.26
27643;BME280;15053;48.618;10.024;2023-03-14T01:14:04;92678.41;;;8.62;90.63
27643;BME280;15053;48.618;10.024;2023-03-14T01:16:32;92697.34;;;8.62;90.79
27643;BME280;15053;48.618;10.024;2023-03-14T01:19:00;92709.84;;;8.60;91.34
27643;BME280;15053;48.618;10.024;2023-03-14T01:21:30;92716.13;;;8.59;91.19
27643;BME280;15053;48.618;10.024;2023-03-14T01:23:58;92702.84;;;8.52;91.49
27643;BME280;15053;48.618;10.024;2023-03-14T01:26:26;92709.06;;;8.60;91.14
27643;BME280;15053;48.618;10.024;2023-03-14T01:28:54;92715.34;;;8.59;91.66
27643;BME280;15053;48.618;10.024;2023-03-14T01:31:22;92712.00;;;8.58;91.85
27643;BME280;15053;48.618;10.024;2023-03-14T01:33:49;92707.56;;;8.59;91.17
27643;BME280;15053;48.618;10.024;2023-03-14T01:36:16;92691.69;;;8.60;91.89
27643;BME280;15053;48.618;10.024;2023-03-14T01:38:43;92685.44;;;8.61;91.23
27643;BME280;15053;48.618;10.024;2023-03-14T01:41:19;92677.94;;;8.60;91.72
27643;BME280;15053;48.618;10.024;2023-03-14T01:43:47;92675.81;;;8.62;91.87
27643;BME280;15053;48.618;10.024;2023-03-14T01:46:28;92684.66;;;8.61;92.47
27643;BME280;15053;48.618;10.024;2023-03-14T01:49:01;92672.00;;;8.59;92.40
27643;BME280;15053;48.618;10.024;2023-03-14T01:54:13;92671.25;;;8.59;93.49
27643;BME280;15053;48.618;10.024;2023-03-14T01:56:43;92663.03;;;8.57;92.76
27643;BME280;15053;48.618;10.024;2023-03-14T01:59:12;92651.88;;;8.56;93.20
27643;BME280;15053;48.618;10.024;2023-03-14T02:01:42;92648.19;;;8.57;93.27
27643;BME280;15053;48.618;10.024;2023-03-14T02:04:09;92648.97;;;8.58;93.70
27643;BME280;15053;48.618;10.024;2023-03-14T02:06:50;92657.19;;;8.60;93.44
27643;BME280;15053;48.618;10.024;2023-03-14T02:09:20;92645.31;;;8.59;93.72
27643;BME280;15053;48.618;10.024;2023-03-14T02:11:48;92640.41;;;8.57;93.59
27643;BME280;15053;48.618;10.024;2023-03-14T02:14:41;92630.34;;;8.56;93.52
27643;BME280;15053;48.618;10.024;2023-03-14T02:17:35;92632.19;;;8.55;94.00
27643;BME280;15053;48.618;10.024;2023-03-14T02:22:53;92638.31;;;8.51;94.19
27643;BME280;15053;48.618;10.024;2023-03-14T02:28:02;92651.28;;;8.51;94.26
27643;BME280;15053;48.618;10.024;2023-03-14T02:30:30;92640.59;;;8.52;94.31
27643;BME280;15053;48.618;10.024;2023-03-14T02:33:12;92629.44;;;8.52;93.86
27643;BME280;15053;48.618;10.024;2023-03-14T02:35:53;92641.34;;;8.53;93.88
27643;BME280;15053;48.618;10.024;2023-03-14T02:38:35;92637.69;;;8.54;93.91
27643;BME280;15053;48.618;10.024;2023-03-14T02:41:05;92642.25;;;8.57;94.32
27643;BME280;15053;48.618;10.024;2023-03-14T02:43:37;92634.16;;;8.58;93.86
27643;BME280;15053;48.618;10.024;2023-03-14T02:46:10;92625.59;;;8.58;94.28
27643;BME280;15053;48.618;10.024;2023-03-14T02:48:45;92615.22;;;8.58;93.88
27643;BME280;15053;48.618;10.024;2023-03-14T02:51:16;92608.97;;;8.59;93.42
27643;BME280;15053;48.618;10.024;2023-03-14T02:53:45;92605.63;;;8.58;93.85
27643;BME280;15053;48.618;10.024;2023-03-14T02:56:14;92619.03;;;8.60;93.75
27643;BME280;15053;48.618;10.024;2023-03-14T02:58:40;92621.31;;;8.62;93.48
27643;BME280;15053;48.618;10.024;2023-03-14T03:01:18;92617.97;;;8.61;93.29
27643;BME280;15053;48.618;10.024;2023-03-14T03:03:45;92614.16;;;8.59;93.71
27643;BME280;15053;48.618;10.024;2023-03-14T03:06:11;92612.34;;;8.59;93.69
27643;BME280;15053;48.618;10.024;2023-03-14T03:08:38;92609.13;;;8.62;93.23
27643;BME280;15053;48.618;10.024;2023-03-14T03:11:05;92603.47;;;8.60;93.60
27643;BME280;15053;48.618;10.024;2023-03-14T03:13:33;92596.44;;;8.61;93.77
27643;BME280;15053;48.618;10.024;2023-03-14T03:16:02;92607.59;;;8.61;93.92
27643;BME280;15053;48.618;10.024;2023-03-14T03:18:28;92599.38;;;8.59;93.59
27643;BME280;15053;48.618;10.024;2023-03-14T03:20:56;92591.59;;;8.59;93.96
27643;BME280;15053;48.618;10.024;2023-03-14T03:23:25;92590.81;;;8.59;94.11
27643;BME280;15053;48.618;10.024;2023-03-14T03:25:51;92567.66;;;8.54;93.77
27643;BME280;15053;48.618;10.024;2023-03-14T03:28:19;92566.69;;;8.58;93.78
27643;BME280;15053;48.618;10.024;2023-03-14T03:30:46;92559.97;;;8.57;93.68
27643;BME280;15053;48.618;10.024;2023-03-14T03:33:13;92559.25;;;8.57;93.66
27643;BME280;15053;48.618;10.024;2023-03-14T03:35:49;92559.97;;;8.57;94.14
27643;BME280;15053;48.618;10.024;2023-03-14T03:38:22;92553.28;;;8.56;93.42
27643;BME280;15053;48.618;10.024;2023-03-14T03:40:52;92547.63;;;8.54;94.34
27643;BME280;15053;48.618;10.024;2023-03-14T03:43:19;92540.63;;;8.55;93.81
27643;BME280;15053;48.618;10.024;2023-03-14T03:45:47;92542.78;;;8.53;93.62
27643;BME280;15053;48.618;10.024;2023-03-14T03:48:14;92526.88;;;8.54;93.56
27643;BME280;15053;48.618;10.024;2023-03-14T03:50:47;92529.94;;;8.56;94.06
27643;BME280;15053;48.618;10.024;2023-03-14T03:53:17;92535.13;;;8.56;93.66
27643;BME280;15053;48.618;10.024;2023-03-14T03:55:59;92532.63;;;8.60;94.11
27643;BME280;15053;48.618;10.024;2023-03-14T03:58:26;92527.34;;;8.56;93.64
27643;BME280;15053;48.618;10.024;2023-03-14T04:00:52;92527.34;;;8.56;94.06
27643;BME280;15053;48.618;10.024;2023-03-14T04:03:18;92540.63;;;8.55;94.01
27643;BME280;15053;48.618;10.024;2023-03-14T04:05:45;92530.56;;;8.53;93.55
27643;BME280;15053;48.618;10.024;2023-03-14T04:08:12;92532.06;;;8.54;93.81
27643;BME280;15053;48.618;10.024;2023-03-14T04:10:39;92533.94;;;8.54;93.55
27643;BME280;15053;48.618;10.024;2023-03-14T04:13:08;92535.56;;;8.58;93.51
27643;BME280;15053;48.618;10.024;2023-03-14T04:15:37;92534.03;;;8.57;93.19
27643;BME280;15053;48.618;10.024;2023-03-14T04:18:11;92529.16;;;8.56;93.76
27643;BME280;15053;48.618;10.024;2023-03-14T04:20:37;92528.41;;;8.55;93.66
27643;BME280;15053;48.618;10.024;2023-03-14T04:23:04;92536.19;;;8.55;93.85
27643;BME280;15053;48.618;10.024;2023-03-14T04:25:30;92535.00;;;8.53;93.98
27643;BME280;15053;48.618;10.024;2023-03-14T04:27:59;92531.06;;;8.47;93.91
27643;BME280;15053;48.618;10.024;2023-03-14T04:30:28;92541.56;;;8.50;94.12
27643;BME280;15053;48.618;10.024;2023-03-14T04:32:58;92536.72;;;8.49;93.84
27643;BME280;15053;48.618;10.024;2023-03-14T04:35:26;92522.97;;;8.48;94.68
27643;BME280;15053;48.618;10.024;2023-03-14T04:37:57;92518.84;;;8.47;94.13
27643;BME280;15053;48.618;10.024;2023-03-14T04:40:24;92510.50;;;8.42;94.14
27643;BME280;15053;48.618;10.024;2023-03-14T04:42:54;92513.09;;;8.42;94.28
27643;BME280;15053;48.618;10.024;2023-03-14T04:45:21;92514.91;;;8.41;94.50
27643;BME280;15053;48.618;10.024;2023-03-14T04:47:48;92498.16;;;8.39;94.60
27643;BME280;15053;48.618;10.024;2023-03-14T04:50:17;92495.25;;;8.40;94.27
27643;BME280;15053;48.618;10.024;2023-03-14T04:52:45;92502.56;;;8.38;94.16
27643;BME280;15053;48.618;10.024;2023-03-14T04:55:11;92501.84;;;8.38;94.83
27643;BME280;15053;48.618;10.024;2023-03-14T04:57:38;92494.69;;;8.35;94.36
27643;BME280;15053;48.618;10.024;2023-03-14T05:00:09;92493.94;;;8.34;95.20
27643;BME280;15053;48.618;10.024;2023-03-14T05:02:51;92493.03;;;8.30;94.39
27643;BME280;15053;48.618;10.024;2023-03-14T05:05:25;92498.97;;;8.30;95.14
27643;BME280;15053;48.618;10.024;2023-03-14T05:08:27;92485.88;;;8.27;95.10
27643;BME280;15053;48.618;10.024;2023-03-14T05:11:10;92476.25;;;8.27;94.58
27643;BME280;15053;48.618;10.024;2023-03-14T05:13:52;92464.22;;;8.23;94.98
27643;BME280;15053;48.618;10.024;2023-03-14T05:16:43;92467.59;;;8.23;94.64
27643;BME280;15053;48.618;10.024;2023-03-14T05:19:29;92465.75;;;8.24;94.87
27643;BME280;15053;48.618;10.024;2023-03-14T05:22:16;92450.34;;;8.19;94.85
27643;BME280;15053;48.618;10.024;2023-03-14T05:25:12;92454.91;;;8.22;94.82
27643;BME280;15053;48.618;10.024;2023-03-14T05:28:01;92456.31;;;8.19;94.38
27643;BME280;15053;48.618;10.024;2023-03-14T05:30:37;92449.63;;;8.18;94.21
27643;BME280;15053;48.618;10.024;2023-03-14T05:33:23;92450.69;;;8.17;94.39
27643;BME280;15053;48.618;10.024;2023-03-14T05:36:11;92442.78;;;8.14;93.65
27643;BME280;15053;48.618;10.024;2023-03-14T05:38:52;92439.88;;;8.15;94.21
27643;BME280;15053;48.618;10.024;2023-03-14T05:41:29;92433.16;;;8.14;93.60
27643;BME280;15053;48.618;10.024;2023-03-14T05:44:22;92439.88;;;8.15;93.88
27643;BME280;15053;48.618;10.024;2023-03-14T05:47:13;92430.25;;;8.16;93.09
27643;BME280;15053;48.618;10.024;2023-03-14T05:50:00;92440.31;;;8.17;93.48
27643;BME280;15053;48.618;10.024;2023-03-14T05:52:34;92425.81;;;8.16;92.64
27643;BME280;15053;48.618;10.024;2023-03-14T05:55:18;92425.81;;;8.16;93.02
27643;BME280;15053;48.618;10.024;2023-03-14T05:57:57;92432.84;;;8.16;92.94
27643;BME280;15053;48.618;10.024;2023-03-14T06:00:42;92425.06;;;8.16;92.43
27643;BME280;15053;48.618;10.024;2023-03-14T06:03:32;92421.28;;;8.13;92.79
27643;BME280;15053;48.618;10.024;2023-03-14T06:05:59;92422.78;;;8.14;92.14
27643;BME280;15053;48.618;10.024;2023-03-14T06:08:26;92413.06;;;8.11;92.67
27643;BME280;15053;48.618;10.024;2023-03-14T06:10:53;92426.47;;;8.13;92.65
27643;BME280;15053;48.618;10.024;2023-03-14T06:13:27;92427.53;;;8.12;91.15
27643;BME280;15053;48.618;10.024;2023-03-14T06:15:54;92423.75;;;8.10;91.80
27643;BME280;15053;48.618;10.024;2023-03-14T06:18:20;92411.09;;;8.08;91.15
27643;BME280;15053;48.618;10.024;2023-03-14T06:20:47;92410.03;;;8.09;91.26
27643;BME280;15053;48.618;10.024;2023-03-14T06:23:22;92407.44;;;8.09;91.33
27643;BME280;15053;48.618;10.024;2023-03-14T06:25:49;92403.31;;;8.08;91.40
27643;BME280;15053;48.618;10.024;2023-03-14T06:28:16;92398.13;;;8.08;91.57
27643;BME280;15053;48.618;10.024;2023-03-14T06:30:43;92399.22;;;8.07;91.08
27643;BME280;15053;48.618;10.024;2023-03-14T06:33:11;92404.84;;;8.09;91.01
27643;BME280;15053;48.618;10.024;2023-03-14T06:35:40;92422.22;;;8.09;90.76
27643;BME280;15053;48.618;10.024;2023-03-14T06:38:06;92409.91;;;8.06;91.52
27643;BME280;15053;48.618;10.024;2023-03-14T06:40:33;92424.06;;;8.08;91.46
27643;BME280;15053;48.618;10.024;2023-03-14T06:43:05;92424.06;;;8.08;90.80
27643;BME280;15053;48.618;10.024;2023-03-14T06:45:37;92418.88;;;8.08;91.04
27643;BME280;15053;48.618;10.024;2023-03-14T06:48:05;92414.78;;;8.07;90.81
27643;BME280;15053;48.618;10.024;2023-03-14T06:50:39;92421.03;;;8.06;91.11
27643;BME280;15053;48.618;10.024;2023-03-14T06:53:05;92423.00;;;8.09;91.21
27643;BME280;15053;48.618;10.024;2023-03-14T06:55:34;92428.63;;;8.11;90.46
27643;BME280;15053;48.618;10.024;2023-03-14T06:58:00;92437.59;;;8.14;90.47
27643;BME280;15053;48.618;10.024;2023-03-14T07:00:27;92437.41;;;8.19;90.15
27643;BME280;15053;48.618;10.024;2023-03-14T07:02:56;92424.56;;;8.22;90.33
27643;BME280;15053;48.618;10.024;2023-03-14T07:05:36;92444.09;;;8.28;90.59
27643;BME280;15053;48.618;10.024;2023-03-14T07:08:02;92444.09;;;8.28;90.50
27643;BME280;15053;48.618;10.024;2023-03-14T07:10:29;92448.63;;;8.32;90.20
27643;BME280;15053;48.618;10.024;2023-03-14T07:12:55;92459.25;;;8.39;90.13
27643;BME280;15053;48.618;10.024;2023-03-14T07:15:25;92468.38;;;8.45;90.13
27643;BME280;15053;48.618;10.024;2023-03-14T07:17:56;92463.94;;;8.45;89.77
27643;BME280;15053;48.618;10.024;2023-03-14T07:20:23;92468.38;;;8.45;89.94
27643;BME280;15053;48.618;10.024;2023-03-14T07:22:50;92462.22;;;8.49;89.21
27643;BME280;15053;48.618;10.024;2023-03-14T07:25:24;92471.84;;;8.49;89.31
27643;BME280;15053;48.618;10.024;2023-03-14T07:27:52;92467.75;;;8.48;88.92
27643;BME280;15053;48.618;10.024;2023-03-14T07:30:19;92474.44;;;8.49;89.82
27643;BME280;15053;48.618;10.024;2023-03-14T07:32:46;92475.31;;;8.53;89.18
27643;BME280;15053;48.618;10.024;2023-03-14T07:35:13;92466.47;;;8.54;89.23
27643;BME280;15053;48.618;10.024;2023-03-14T07:37:40;92467.34;;;8.58;88.98
27643;BME280;15053;48.618;10.024;2023-03-14T07:40:08;92453.44;;;8.62;88.03
27643;BME280;15053;48.618;10.024;2023-03-14T07:42:36;92460.25;;;8.67;87.72
27643;BME280;15053;48.618;10.024;2023-03-14T07:45:29;92459.84;;;8.77;87.93
27643;BME280;15053;48.618;10.024;2023-03-14T07:47:55;92458.91;;;8.81;87.95
27643;BME280;15053;48.618;10.024;2023-03-14T07:50:25;92471.06;;;8.89;87.96
27643;BME280;15053;48.618;10.024;2023-03-14T07:52:52;92465.13;;;9.01;87.52
27643;BME280;15053;48.618;10.024;2023-03-14T07:55:18;92471.75;;;9.11;87.43
27643;BME280;15053;48.618;10.024;2023-03-14T07:57:45;92469.38;;;9.18;87.13
27643;BME280;15053;48.618;10.024;2023-03-14T08:00:12;92469.19;;;9.23;86.77
27643;BME280;15053;48.618;10.024;2023-03-14T08:02:41;92462.59;;;9.25;86.29
27643;BME280;15053;48.618;10.024;2023-03-14T08:05:08;92467.78;;;9.25;85.09
27643;BME280;15053;48.618;10.024;2023-03-14T08:07:35;92472.66;;;9.27;85.53
27643;BME280;15053;48.618;10.024;2023-03-14T08:10:02;92470.28;;;9.34;85.55
27643;BME280;15053;48.618;10.024;2023-03-14T08:12:28;92456.34;;;9.38;85.10
27643;BME280;15053;48.618;10.024;2023-03-14T08:14:55;92477.25;;;9.42;84.91
27643;BME280;15053;48.618;10.024;2023-03-14T08:17:21;92458.28;;;9.41;84.41
27643;BME280;15053;48.618;10.024;2023-03-14T08:19:48;92467.63;;;9.55;84.06
27643;BME280;15053;48.618;10.024;2023-03-14T08:22:14;92461.91;;;9.61;83.84
27643;BME280;15053;48.618;10.024;2023-03-14T08:24:44;92469.13;;;9.68;83.42
27643;BME280;15053;48.618;10.024;2023-03-14T08:27:11;92470.44;;;9.74;82.99
27643;BME280;15053;48.618;10.024;2023-03-14T08:29:37;92479.53;;;9.80;81.82
27643;BME280;15053;48.618;10.024;2023-03-14T08:32:04;92465.78;;;9.79;81.51
27643;BME280;15053;48.618;10.024;2023-03-14T08:34:33;92484.00;;;9.91;80.63
27643;BME280;15053;48.618;10.024;2023-03-14T08:36:59;92467.59;;;10.03;80.36
27643;BME280;15053;48.618;10.024;2023-03-14T08:39:26;92468.94;;;10.21;79.51
27643;BME280;15053;48.618;10.024;2023-03-14T08:41:52;92457.41;;;10.34;79.16
27643;BME280;15053;48.618;10.024;2023-03-14T08:44:19;92462.91;;;10.45;79.00
27643;BME280;15053;48.618;10.024;2023-03-14T08:46:46;92457.91;;;10.52;78.17
27643;BME280;15053;48.618;10.024;2023-03-14T08:49:13;92460.81;;;10.62;77.23
27643;BME280;15053;48.618;10.024;2023-03-14T08:51:41;92461.94;;;10.77;76.97
27643;BME280;15053;48.618;10.024;2023-03-14T08:54:10;92461.25;;;10.92;76.38
27643;BME280;15053;48.618;10.024;2023-03-14T08:56:37;92461.50;;;11.03;75.85
27643;BME280;15053;48.618;10.024;2023-03-14T08:59:06;92460.47;;;11.19;75.61
27643;BME280;15053;48.618;10.024;2023-03-14T09:01:34;92469.56;;;11.41;75.61
27643;BME280;15053;48.618;10.024;2023-03-14T09:04:00;92483.53;;;11.49;74.17
27643;BME280;15053;48.618;10.024;2023-03-14T09:06:27;92468.47;;;11.42;71.78
27643;BME280;15053;48.618;10.024;2023-03-14T09:08:53;92465.94;;;11.46;72.06
27643;BME280;15053;48.618;10.024;2023-03-14T09:11:20;92456.78;;;11.52;71.46
27643;BME280;15053;48.618;10.024;2023-03-14T09:13:46;92471.91;;;11.46;71.13
27643;BME280;15053;48.618;10.024;2023-03-14T09:16:13;92474.72;;;11.53;70.05
27643;BME280;15053;48.618;10.024;2023-03-14T09:18:39;92471.09;;;11.58;69.68
27643;BME280;15053;48.618;10.024;2023-03-14T09:21:06;92487.09;;;11.72;69.92
27643;BME280;15053;48.618;10.024;2023-03-14T09:23:33;92481.97;;;11.75;67.82
27643;BME280;15053;48.618;10.024;2023-03-14T09:26:00;92476.22;;;11.54;66.98
27643;BME280;15053;48.618;10.024;2023-03-14T09:28:27;92480.41;;;11.43;68.18
27643;BME280;15053;48.618;10.024;2023-03-14T09:30:53;92473.91;;;11.37;68.73
27643;BME280;15053;48.618;10.024;2023-03-14T09:33:21;92470.47;;;11.33;69.15
27643;BME280;15053;48.618;10.024;2023-03-14T09:35:47;92477.03;;;11.27;68.80
27643;BME280;15053;48.618;10.024;2023-03-14T09:38:14;92472.91;;;11.26;68.56
27643;BME280;15053;48.618;10.024;2023-03-14T09:40:40;92466.28;;;11.29;69.12
27643;BME280;15053;48.618;10.024;2023-03-14T09:43:11;92474.16;;;11.32;68.80
27643;BME280;15053;48.618;10.024;2023-03-14T09:45:41;92483.59;;;11.37;69.59
27643;BME280;15053;48.618;10.024;2023-03-14T09:48:16;92471.75;;;11.39;68.38
27643;BME280;15053;48.618;10.024;2023-03-14T09:50:47;92473.25;;;11.40;68.79
27643;BME280;15053;48.618;10.024;2023-03-14T09:53:18;92475.03;;;11.36;68.75
27643;BME280;15053;48.618;10.024;2023-03-14T09:55:46;92477.94;;;11.35;68.96
27643;BME280;15053;48.618;10.024;2023-03-14T09:58:24;92483.75;;;11.28;69.21
27643;BME280;15053;48.618;10.024;2023-03-14T10:00:53;92489.44;;;11.18;68.85
27643;BME280;15053;48.618;10.024;2023-03-14T10:03:29;92475.06;;;11.08;69.77
27643;BME280;15053;48.618;10.024;2023-03-14T10:05:57;92475.16;;;11.12;69.99
27643;BME280;15053;48.618;10.024;2023-03-14T10:08:24;92464.59;;;11.20;70.60
27643;BME280;15053;48.618;10.024;2023-03-14T10:10:51;92459.63;;;11.31;71.01
27643;BME280;15053;48.618;10.024;2023-03-14T10:13:27;92442.41;;;11.42;70.46
27643;BME280;15053;48.618;10.024;2023-03-14T10:16:04;92447.38;;;11.47;70.88
27643;BME280;15053;48.618;10.024;2023-03-14T10:18:33;92458.22;;;11.49;69.95
27643;BME280;15053;48.618;10.024;2023-03-14T10:21:29;92460.16;;;11.52;69.87
27643;BME280;15053;48.618;10.024;2023-03-14T10:24:22;92452.84;;;11.58;70.06
27643;BME280;15053;48.618;10.024;2023-03-14T10:27:03;92453.09;;;11.68;69.41
27643;BME280;15053;48.618;10.024;2023-03-14T10:29:31;92456.56;;;11.72;68.44
27643;BME280;15053;48.618;10.024;2023-03-14T10:32:00;92503.41;;;11.69;65.86
27643;BME280;15053;48.618;10.024;2023-03-14T10:34:32;92477.94;;;11.94;66.28
27643;BME280;15053;48.618;10.024;2023-03-14T10:37:06;92455.50;;;12.24;66.66
27643;BME280;15053;48.618;10.024;2023-03-14T10:42:17;92470.38;;;12.77;62.61
27643;BME280;15053;48.618;10.024;2023-03-14T10:44:46;92484.00;;;12.86;60.81
27643;BME280;15053;48.618;10.024;2023-03-14T10:47:22;92478.78;;;12.67;59.98
27643;BME280;15053;48.618;10.024;2023-03-14T10:49:49;92458.91;;;12.43;61.68
27643;BME280;15053;48.618;10.024;2023-03-14T10:52:22;92498.16;;;12.31;61.69
27643;BME280;15053;48.618;10.024;2023-03-14T10:55:11;92477.72;;;12.18;63.34
27643;BME280;15053;48.618;10.024;2023-03-14T10:57:39;92484.78;;;12.33;64.40
27643;BME280;15053;48.618;10.024;2023-03-14T11:00:09;92481.28;;;12.44;63.21
27643;BME280;15053;48.618;10.024;2023-03-14T11:08:04;92520.53;;;12.48;62.56
27643;BME280;15053;48.618;10.024;2023-03-14T11:10:35;92495.50;;;12.47;62.32
27643;BME280;15053;48.618;10.024;2023-03-14T11:15:53;92474.78;;;12.73;63.07
27643;BME280;15053;48.618;10.024;2023-03-14T11:21:22;92478.22;;;12.77;61.89
27643;BME280;15053;48.618;10.024;2023-03-14T11:24:13;92493.38;;;13.07;62.07
27643;BME280;15053;48.618;10.024;2023-03-14T11:26:44;92486.31;;;13.07;62.09
27643;BME280;15053;48.618;10.024;2023-03-14T11:31:55;92475.31;;;12.44;62.89
27643;BME280;15053;48.618;10.024;2023-03-14T11:34:40;92489.25;;;12.32;64.25
27643;BME280;15053;48.618;10.024;2023-03-14T11:37:23;92479.78;;;12.28;64.28
27643;BME280;15053;48.618;10.024;2023-03-14T11:39:59;92480.50;;;12.09;64.13
27643;BME280;15053;48.618;10.024;2023-03-14T11:42:28;92491.13;;;12.01;65.34
27643;BME280;15053;48.618;10.024;2023-03-14T11:44:56;92478.25;;;12.08;65.73
27643;BME280;15053;48.618;10.024;2023-03-14T11:47:30;92482.13;;;12.14;64.62
27643;BME280;15053;48.618;10.024;2023-03-14T11:50:08;92485.47;;;12.30;65.66
27643;BME280;15053;48.618;10.024;2023-03-14T11:52:52;92492.75;;;12.40;65.55
27643;BME280;15053;48.618;10.024;2023-03-14T11:55:26;92508.44;;;12.24;66.33
27643;BME280;15053;48.618;10.024;2023-03-14T11:57:59;92496.19;;;11.94;67.60
27643;BME280;15053;48.618;10.024;2023-03-14T12:00:28;92498.22;;;11.69;68.75
27643;BME280;15053;48.618;10.024;2023-03-14T12:03:21;92516.22;;;11.46;70.38
27643;BME280;15053;48.618;10.024;2023-03-14T12:08:29;92513.97;;;11.01;74.14
27643;BME280;15053;48.618;10.024;2023-03-14T12:11:09;92554.13;;;10.88;75.94
27643;BME280;15053;48.618;10.024;2023-03-14T12:13:39;92547.03;;;10.73;75.97
27643;BME280;15053;48.618;10.024;2023-03-14T12:16:10;92540.44;;;10.51;77.48
27643;BME280;15053;48.618;10.024;2023-03-14T12:18:46;92533.72;;;10.38;78.19
27643;BME280;15053;48.618;10.024;2023-03-14T12:21:13;92529.19;;;10.23;79.07
27643;BME280;15053;48.618;10.024;2023-03-14T12:23:48;92536.03;;;10.16;79.61
27643;BME280;15053;48.618;10.024;2023-03-14T12:27:12;92540.13;;;10.04;81.06
27643;BME280;15053;48.618;10.024;2023-03-14T12:29:31;92536.72;;;9.92;81.54
27643;BME280;15053;48.618;10.024;2023-03-14T12:34:30;92533.03;;;9.81;83.27
27643;BME280;15053;48.618;10.024;2023-03-14T12:37:14;92552.88;;;9.85;83.63
27643;BME280;15053;48.618;10.024;2023-03-14T12:40:05;92549.75;;;9.80;84.39
27643;BME280;15053;48.618;10.024;2023-03-14T12:45:24;92538.88;;;9.66;85.51
27643;BME280;15053;48.618;10.024;2023-03-14T12:50:44;92557.50;;;9.56;86.88
27643;BME280;15053;48.618;10.024;2023-03-14T12:53:33;92560.28;;;9.50;87.22
27643;BME280;15053;48.618;10.024;2023-03-14T12:56:21;92564.41;;;9.52;87.63
27643;BME280;15053;48.618;10.024;2023-03-14T13:02:26;92585.81;;;9.36;86.95
27643;BME280;15053;48.618;10.024;2023-03-14T13:05:11;92577.44;;;9.31;86.54
27643;BME280;15053;48.618;10.024;2023-03-14T13:10:27;92593.41;;;9.21;87.38
27643;BME280;15053;48.618;10.024;2023-03-14T13:13:02;92619.91;;;9.14;88.03
27643;BME280;15053;48.618;10.024;2023-03-14T13:15:34;92624.97;;;9.11;88.03
27643;BME280;15053;48.618;10.024;2023-03-14T13:18:14;92619.63;;;9.07;88.04
27643;BME280;15053;48.618;10.024;2023-03-14T13:20:46;92617.38;;;9.06;89.44
27643;BME280;15053;48.618;10.024;2023-03-14T13:23:27;92617.38;;;9.06;89.09
27643;BME280;15053;48.618;10.024;2023-03-14T13:25:54;92617.38;;;9.06;87.81
27643;BME280;15053;48.618;10.024;2023-03-14T13:28:22;92615.06;;;9.04;87.51
27643;BME280;15053;48.618;10.024;2023-03-14T13:30:50;92626.09;;;9.01;87.53
27643;BME280;15053;48.618;10.024;2023-03-14T13:33:22;92665.69;;;8.98;86.62
27643;BME280;15053;48.618;10.024;2023-03-14T13:35:54;92629.84;;;8.92;87.12
27643;BME280;15053;48.618;10.024;2023-03-14T13:38:26;92636.84;;;8.91;88.19
27643;BME280;15053;48.618;10.024;2023-03-14T13:40:55;92632.56;;;8.95;88.01
27643;BME280;15053;48.618;10.024;2023-03-14T13:43:31;92652.81;;;9.02;87.85
27643;BME280;15053;48.618;10.024;2023-03-14T13:46:21;92665.31;;;9.08;86.90
27643;BME280;15053;48.618;10.024;2023-03-14T13:48:52;92662.72;;;9.08;84.10
27643;BME280;15053;48.618;10.024;2023-03-14T13:51:21;92684.00;;;9.22;83.20
27643;BME280;15053;48.618;10.024;2023-03-14T13:53:51;92688.56;;;9.25;76.00
27643;BME280;15053;48.618;10.024;2023-03-14T13:56:22;92711.38;;;9.20;69.29
27643;BME280;15053;48.618;10.024;2023-03-14T13:58:49;92704.66;;;9.19;66.35
27643;BME280;15053;48.618;10.024;2023-03-14T14:01:42;92712.59;;;9.22;66.93